createdAt,value
2023-05-10T00:01:39.248Z,100600.34
2023-05-10T00:03:35.202Z,100604.00
2023-05-10T00:05:52.916Z,100600.84
2023-05-10T00:07:52.012Z,100601.50
2023-05-10T00:10:30.157Z,100594.34
2023-05-10T00:12:36.818Z,100593.03
2023-05-10T00:14:37.126Z,100592.03
2023-05-10T00:16:51.514Z,100589.25
2023-05-10T00:19:13.035Z,100592.09
2023-05-10T00:21:09.867Z,100579.66
2023-05-10T00:23:07.499Z,100581.50
2023-05-10T00:25:03.440Z,100583.50
2023-05-10T00:27:00.236Z,100588.66
2023-05-10T00:29:06.843Z,100576.22
2023-05-10T00:31:03.571Z,100580.69
2023-05-10T00:33:06.894Z,100576.09
2023-05-10T00:35:14.992Z,100568.97
2023-05-10T00:37:19.012Z,100568.63
2023-05-10T00:39:14.703Z,100566.81
2023-05-10T00:41:10.535Z,100566.63
2023-05-10T00:43:06.086Z,100559.03
2023-05-10T00:45:01.552Z,100568.78
2023-05-10T00:46:56.877Z,100558.06
2023-05-10T00:48:56.131Z,100553.78
2023-05-10T00:50:51.879Z,100560.72
2023-05-10T00:52:47.927Z,100556.59
2023-05-10T00:54:43.651Z,100555.63
2023-05-10T00:56:49.524Z,100549.84
2023-05-10T00:58:47.057Z,100546.53
2023-05-10T01:00:45.975Z,100546.22
2023-05-10T01:02:45.087Z,100543.75
2023-05-10T01:04:55.410Z,100547.38
2023-05-10T01:06:54.398Z,100545.91
2023-05-10T01:08:50.599Z,100540.78
2023-05-10T01:10:47.622Z,100534.84
2023-05-10T01:12:46.943Z,100547.25
2023-05-10T01:14:43.298Z,100542.97
2023-05-10T01:16:42.981Z,100528.06
2023-05-10T01:18:40.815Z,100535.69
2023-05-10T01:20:45.940Z,100537.31
2023-05-10T01:23:30.068Z,100529.22
2023-05-10T01:25:43.949Z,100533.91
2023-05-10T01:27:59.651Z,100533.25
2023-05-10T01:30:16.146Z,100531.09
2023-05-10T01:32:25.532Z,100527.47
2023-05-10T01:34:30.800Z,100530.91
2023-05-10T01:36:33.419Z,100529.94
2023-05-10T01:38:37.466Z,100527.31
2023-05-10T01:40:42.309Z,100526.34
2023-05-10T01:43:01.448Z,100528.47
2023-05-10T01:45:04.118Z,100526.50
2023-05-10T01:47:10.075Z,100525.84
2023-05-10T01:49:33.524Z,100518.09
2023-05-10T01:51:39.703Z,100523.88
2023-05-10T01:53:47.267Z,100526.53
2023-05-10T01:56:28.677Z,100517.78
2023-05-10T01:58:31.543Z,100519.72
2023-05-10T02:00:28.374Z,100512.78
2023-05-10T02:02:25.399Z,100521.25
2023-05-10T02:04:27.570Z,100530.34
2023-05-10T02:06:24.864Z,100519.13
2023-05-10T02:08:22.174Z,100522.56
2023-05-10T02:10:18.636Z,100515.47
2023-05-10T02:12:18.068Z,100513.47
2023-05-10T02:14:20.866Z,100517.59
2023-05-10T02:16:18.595Z,100518.13
2023-05-10T02:18:16.683Z,100515.63
2023-05-10T02:20:17.092Z,100517.28
2023-05-10T02:22:14.282Z,100517.81
2023-05-10T02:24:12.967Z,100514.31
2023-05-10T02:26:10.765Z,100513.66
2023-05-10T02:28:13.204Z,100496.63
2023-05-10T02:30:13.984Z,100508.19
2023-05-10T02:32:10.697Z,100506.22
2023-05-10T02:34:08.189Z,100504.91
2023-05-10T02:36:07.284Z,100513.31
2023-05-10T02:38:03.813Z,100508.38
2023-05-10T02:40:07.510Z,100511.00
2023-05-10T02:42:14.545Z,100507.03
2023-05-10T02:44:26.818Z,100507.56
2023-05-10T02:46:41.610Z,100508.38
2023-05-10T02:48:47.385Z,100492.50
2023-05-10T02:51:08.006Z,100504.06
2023-05-10T02:53:21.131Z,100500.41
2023-05-10T03:01:00.465Z,100498.91
2023-05-10T03:03:04.181Z,100504.88
2023-05-10T03:05:19.512Z,100496.09
2023-05-10T03:07:29.291Z,100492.78
2023-05-10T03:09:32.555Z,100506.00
2023-05-10T03:12:21.940Z,100496.75
2023-05-10T03:14:56.125Z,100500.56
2023-05-10T03:17:21.532Z,100501.91
2023-05-10T03:19:49.056Z,100503.84
2023-05-10T03:22:17.502Z,100497.09
2023-05-10T03:24:31.279Z,100497.22
2023-05-10T03:26:53.909Z,100496.06
2023-05-10T03:29:07.549Z,100498.88
2023-05-10T03:31:21.975Z,100491.94
2023-05-10T03:33:18.044Z,100492.75
2023-05-10T03:35:16.908Z,100497.38
2023-05-10T03:37:12.638Z,100484.34
2023-05-10T03:39:11.768Z,100495.06
2023-05-10T03:41:07.475Z,100495.53
2023-05-10T03:43:09.513Z,100494.53
2023-05-10T03:45:06.537Z,100498.16
2023-05-10T03:47:06.395Z,100497.16
2023-05-10T03:49:05.403Z,100493.22
2023-05-10T03:51:01.387Z,100488.91
2023-05-10T03:52:57.456Z,100493.22
2023-05-10T03:54:54.236Z,100487.13
2023-05-10T03:56:49.777Z,100487.28
2023-05-10T03:58:48.333Z,100483.63
2023-05-10T04:00:47.671Z,100489.44
2023-05-10T04:02:46.410Z,100488.44
2023-05-10T04:04:42.243Z,100490.22
2023-05-10T04:06:51.827Z,100493.34
2023-05-10T04:08:47.757Z,100489.38
2023-05-10T04:10:46.991Z,100494.00
2023-05-10T04:12:42.494Z,100493.00
2023-05-10T04:14:40.929Z,100496.44
2023-05-10T04:16:36.224Z,100479.94
2023-05-10T04:18:31.907Z,100491.34
2023-05-10T04:20:27.108Z,100480.44
2023-05-10T04:22:22.745Z,100485.88
2023-05-10T04:24:18.094Z,100483.41
2023-05-10T04:26:13.789Z,100482.94
2023-05-10T04:28:09.090Z,100484.91
2023-05-10T04:30:08.572Z,100489.81
2023-05-10T04:32:04.770Z,100488.69
2023-05-10T04:34:00.390Z,100492.44
2023-05-10T04:35:55.436Z,100486.50
2023-05-10T04:37:50.963Z,100490.78
2023-05-10T04:39:46.058Z,100485.97
2023-05-10T04:41:41.992Z,100483.19
2023-05-10T04:43:37.489Z,100485.84
2023-05-10T04:45:35.719Z,100478.91
2023-05-10T04:47:30.867Z,100481.69
2023-05-10T04:49:26.375Z,100478.06
2023-05-10T04:51:21.636Z,100482.34
2023-05-10T04:53:17.347Z,100474.28
2023-05-10T04:55:13.043Z,100479.56
2023-05-10T04:57:08.589Z,100475.78
2023-05-10T04:59:03.789Z,100478.72
2023-05-10T05:01:11.730Z,100477.75
2023-05-10T05:03:08.357Z,100486.34
2023-05-10T05:05:03.927Z,100469.22
2023-05-10T05:06:58.988Z,100477.63
2023-05-10T05:08:57.027Z,100477.78
2023-05-10T05:10:52.439Z,100480.91
2023-05-10T05:12:48.618Z,100478.13
2023-05-10T05:14:44.264Z,100482.91
2023-05-10T05:16:42.378Z,100474.31
2023-05-10T05:18:37.487Z,100473.31
2023-05-10T05:20:36.097Z,100476.81
2023-05-10T05:22:31.149Z,100474.50
2023-05-10T05:24:26.838Z,100467.41
2023-05-10T05:26:22.556Z,100476.16
2023-05-10T05:28:21.590Z,100475.84
2023-05-10T05:30:16.976Z,100473.84
2023-05-10T05:32:15.252Z,100477.50
2023-05-10T05:34:10.353Z,100468.25
2023-05-10T05:36:06.860Z,100465.28
2023-05-10T05:38:02.137Z,100474.88
2023-05-10T05:39:57.960Z,100466.78
2023-05-10T05:41:53.132Z,100471.09
2023-05-10T05:43:48.465Z,100470.75
2023-05-10T05:45:43.559Z,100459.06
2023-05-10T05:47:42.850Z,100465.00
2023-05-10T05:49:38.277Z,100463.34
2023-05-10T05:51:35.882Z,100463.69
2023-05-10T05:53:32.660Z,100458.41
2023-05-10T05:55:28.605Z,100456.59
2023-05-10T05:57:24.108Z,100459.59
2023-05-10T05:59:19.886Z,100457.75
2023-05-10T06:01:15.279Z,100462.41
2023-05-10T06:03:13.404Z,100466.03
2023-05-10T06:05:09.765Z,100469.00
2023-05-10T06:07:05.132Z,100476.94
2023-05-10T06:09:00.219Z,100473.47
2023-05-10T06:10:55.683Z,100470.66
2023-05-10T06:12:50.820Z,100467.38
2023-05-10T06:14:46.373Z,100473.97
2023-05-10T06:16:41.721Z,100468.06
2023-05-10T06:18:40.067Z,100468.56
2023-05-10T06:20:35.249Z,100468.03
2023-05-10T06:22:30.813Z,100473.00
2023-05-10T06:24:25.814Z,100470.69
2023-05-10T06:26:22.041Z,100472.00
2023-05-10T06:28:17.333Z,100479.44
2023-05-10T06:30:15.875Z,100479.59
2023-05-10T06:32:11.090Z,100483.53
2023-05-10T06:34:09.347Z,100478.75
2023-05-10T06:36:05.814Z,100473.13
2023-05-10T06:38:01.395Z,100479.56
2023-05-10T06:39:56.491Z,100465.81
2023-05-10T06:41:52.066Z,100470.78
2023-05-10T06:43:47.213Z,100466.97
2023-05-10T06:45:42.812Z,100468.47
2023-05-10T06:47:39.144Z,100469.41
2023-05-10T06:49:38.205Z,100469.91
2023-05-10T06:51:33.997Z,100475.53
2023-05-10T06:53:29.415Z,100476.47
2023-05-10T06:55:24.775Z,100467.53
2023-05-10T06:57:31.162Z,100476.63
2023-05-10T06:59:27.302Z,100478.78
2023-05-10T07:01:23.007Z,100480.06
2023-05-10T07:03:18.333Z,100474.59
2023-05-10T07:05:16.660Z,100472.06
2023-05-10T07:07:12.317Z,100467.09
2023-05-10T07:09:08.821Z,100464.28
2023-05-10T07:11:05.142Z,100476.03
2023-05-10T07:13:01.608Z,100462.44
2023-05-10T07:14:56.831Z,100464.38
2023-05-10T07:16:52.278Z,100469.16
2023-05-10T07:18:47.404Z,100469.31
2023-05-10T07:20:45.591Z,100464.81
2023-05-10T07:22:46.916Z,100467.47
2023-05-10T07:25:27.537Z,100456.31
2023-05-10T07:27:26.702Z,100466.41
2023-05-10T07:29:22.167Z,100455.44
2023-05-10T07:31:17.386Z,100469.81
2023-05-10T07:33:14.071Z,100460.03
2023-05-10T07:35:09.764Z,100466.81
2023-05-10T07:37:08.542Z,100465.47
2023-05-10T07:39:03.630Z,100458.00
2023-05-10T07:40:59.181Z,100466.50
2023-05-10T07:42:54.316Z,100458.84
2023-05-10T07:44:49.813Z,100458.13
2023-05-10T07:46:44.850Z,100460.09
2023-05-10T07:48:40.728Z,100460.38
2023-05-10T07:50:35.876Z,100459.34
2023-05-10T07:55:47.403Z,100455.25
2023-05-10T07:57:43.499Z,100456.72
2023-05-10T07:59:38.962Z,100450.25
2023-05-10T08:01:49.117Z,100455.91
2023-05-10T08:11:05.686Z,100457.75
2023-05-10T08:13:48.494Z,100449.09
2023-05-10T08:16:18.698Z,100461.91
2023-05-10T08:18:42.276Z,100456.13
2023-05-10T08:21:02.969Z,100451.81
2023-05-10T08:23:41.433Z,100445.66
2023-05-10T08:25:43.916Z,100450.22
2023-05-10T08:27:42.429Z,100441.66
2023-05-10T08:29:49.056Z,100446.44
2023-05-10T08:31:47.492Z,100443.41
2023-05-10T08:33:44.585Z,100442.91
2023-05-10T08:35:41.233Z,100444.56
2023-05-10T08:37:37.104Z,100468.59
2023-05-10T08:39:38.649Z,100450.56
2023-05-10T08:41:46.232Z,100460.56
2023-05-10T08:44:02.990Z,100459.00
2023-05-10T08:48:50.429Z,100464.94
2023-05-10T08:51:20.183Z,100464.13
2023-05-10T08:54:10.421Z,100456.94
2023-05-10T08:57:07.117Z,100463.53
2023-05-10T09:00:02.845Z,100460.28
2023-05-10T09:02:02.668Z,100465.50
2023-05-10T09:04:13.310Z,100455.13
2023-05-10T09:06:15.244Z,100457.88
2023-05-10T09:08:14.244Z,100459.53
2023-05-10T09:10:19.269Z,100453.81
2023-05-10T09:12:17.282Z,100457.69
2023-05-10T09:14:14.733Z,100454.34
2023-05-10T09:16:21.663Z,100454.94
2023-05-10T09:18:21.305Z,100460.75
2023-05-10T09:20:18.797Z,100461.75
2023-05-10T09:22:17.551Z,100469.56
2023-05-10T09:24:13.454Z,100471.63
2023-05-10T09:26:10.391Z,100469.81
2023-05-10T09:28:06.418Z,100468.81
2023-05-10T09:30:05.350Z,100462.22
2023-05-10T09:32:13.846Z,100473.13
2023-05-10T09:34:14.996Z,100468.44
2023-05-10T09:36:13.267Z,100467.81
2023-05-10T09:38:09.827Z,100473.78
2023-05-10T09:40:08.649Z,100468.63
2023-05-10T09:42:40.537Z,100463.91
2023-05-10T09:45:22.784Z,100463.22
2023-05-10T09:47:32.953Z,100463.84
2023-05-10T09:49:47.643Z,100461.94
2023-05-10T09:52:10.493Z,100469.50
2023-05-10T09:54:26.695Z,100477.72
2023-05-10T09:59:23.853Z,100468.81
2023-05-10T10:05:57.438Z,100469.00
2023-05-10T10:15:08.664Z,100466.91
2023-05-10T10:17:08.770Z,100466.34
2023-05-10T10:19:05.147Z,100469.41
2023-05-10T10:21:01.201Z,100466.75
2023-05-10T10:22:56.821Z,100473.31
2023-05-10T10:24:56.493Z,100473.22
2023-05-10T10:26:56.313Z,100465.66
2023-05-10T10:29:05.448Z,100463.56
2023-05-10T10:31:07.669Z,100464.94
2023-05-10T10:33:28.309Z,100452.66
2023-05-10T10:35:24.926Z,100458.78
2023-05-10T10:37:21.656Z,100457.59
2023-05-10T10:39:21.671Z,100456.97
2023-05-10T10:41:47.358Z,100446.47
2023-05-10T10:44:04.044Z,100463.84
2023-05-10T10:46:19.461Z,100450.06
2023-05-10T10:48:28.163Z,100462.72
2023-05-10T10:50:39.914Z,100454.28
2023-05-10T10:53:01.008Z,100466.88
2023-05-10T10:55:18.691Z,100464.94
2023-05-10T10:57:46.893Z,100460.03
2023-05-10T11:00:02.624Z,100455.19
2023-05-10T11:02:06.748Z,100454.25
2023-05-10T11:04:22.090Z,100462.44
2023-05-10T11:06:59.240Z,100453.13
2023-05-10T12:03:17.043Z,100451.66
2023-05-10T12:05:18.896Z,100455.19
2023-05-10T12:07:14.109Z,100446.19
2023-05-10T12:09:44.184Z,100444.81
2023-05-10T12:11:44.307Z,100458.59
2023-05-10T12:21:12.011Z,100449.38
2023-05-10T14:36:08.125Z,100431.59
2023-05-10T14:38:33.694Z,100428.06
2023-05-10T14:40:50.057Z,100427.25
2023-05-10T14:46:52.043Z,100423.72
2023-05-10T14:49:03.720Z,100420.44
2023-05-10T14:51:01.381Z,100425.63
2023-05-10T14:52:56.587Z,100439.97
2023-05-10T14:54:54.770Z,100437.00
2023-05-10T14:56:51.065Z,100430.69
2023-05-10T14:58:58.983Z,100422.94
2023-05-10T15:00:54.630Z,100426.50
2023-05-10T15:02:51.188Z,100425.09
2023-05-10T15:04:48.524Z,100421.63
2023-05-10T15:06:44.905Z,100427.28
2023-05-10T15:08:40.253Z,100431.34
2023-05-10T15:10:38.924Z,100431.59
2023-05-10T15:12:34.217Z,100429.97
2023-05-10T15:14:31.494Z,100430.28
2023-05-10T15:16:26.797Z,100445.41
2023-05-10T15:18:25.000Z,100441.47
2023-05-10T15:20:20.448Z,100436.84
2023-05-10T15:22:16.369Z,100435.47
2023-05-10T15:24:12.429Z,100444.09
2023-05-10T15:26:13.866Z,100442.41
2023-05-10T15:28:14.349Z,100446.16
2023-05-10T15:30:14.572Z,100448.41
2023-05-10T15:32:14.165Z,100447.13
2023-05-10T15:34:09.749Z,100444.88
2023-05-10T15:36:05.460Z,100442.69
2023-05-10T15:38:06.168Z,100439.97
2023-05-10T15:40:06.834Z,100442.72
2023-05-10T15:42:13.267Z,100440.50
2023-05-10T15:44:15.145Z,100440.00
2023-05-10T15:46:11.742Z,100446.25
2023-05-10T15:48:12.926Z,100436.53
2023-05-10T15:50:12.467Z,100438.22
2023-05-10T15:52:25.476Z,100439.47
2023-05-10T15:56:55.055Z,100445.22
2023-05-10T15:58:53.076Z,100454.88
2023-05-10T16:00:48.291Z,100450.59
2023-05-10T16:02:43.997Z,100454.47
2023-05-10T16:04:39.377Z,100449.91
2023-05-10T16:06:39.461Z,100452.56
2023-05-10T16:08:42.033Z,100449.63
2023-05-10T16:10:49.890Z,100455.97
2023-05-10T16:12:45.578Z,100450.78
2023-05-10T16:14:44.313Z,100454.41
2023-05-10T16:16:43.429Z,100458.59
2023-05-10T16:18:43.204Z,100459.22
2023-05-10T16:20:48.088Z,100454.75
2023-05-10T16:23:04.055Z,100473.56
2023-05-10T16:25:24.688Z,100474.13
2023-05-10T16:27:22.434Z,100487.06
2023-05-10T16:29:32.141Z,100489.97
2023-05-10T16:31:32.688Z,100481.03
2023-05-10T16:33:37.565Z,100484.72
2023-05-10T16:35:33.493Z,100484.44
2023-05-10T16:37:33.609Z,100479.75
2023-05-10T16:39:29.345Z,100482.50
2023-05-10T16:41:24.841Z,100493.38
2023-05-10T16:43:26.074Z,100502.81
2023-05-10T16:45:21.842Z,100506.13
2023-05-10T16:47:20.417Z,100506.13
2023-05-10T16:49:15.908Z,100513.09
2023-05-10T16:51:12.544Z,100505.81
2023-05-10T16:53:08.097Z,100507.66
2023-05-10T16:55:04.544Z,100512.44
2023-05-10T16:57:00.144Z,100514.88
2023-05-10T16:58:55.995Z,100509.53
2023-05-10T17:00:51.445Z,100509.44
2023-05-10T17:02:49.622Z,100514.06
2023-05-10T17:04:45.558Z,100517.72
2023-05-10T17:06:45.689Z,100522.09
2023-05-10T17:11:57.613Z,100519.00
2023-05-10T17:13:59.984Z,100525.72
2023-05-10T17:16:07.779Z,100528.75
2023-05-10T17:18:13.381Z,100528.50
2023-05-10T17:20:15.082Z,100526.28
2023-05-10T17:22:14.899Z,100527.78
2023-05-10T17:24:14.966Z,100532.06
2023-05-10T17:26:17.350Z,100534.91
2023-05-10T17:28:19.592Z,100533.22
2023-05-10T17:30:27.683Z,100545.81
2023-05-10T17:32:25.908Z,100531.44
2023-05-10T17:35:21.760Z,100535.22
2023-05-10T17:42:49.680Z,100542.75
2023-05-10T17:47:48.434Z,100553.78
2023-05-10T17:50:38.248Z,100556.59
2023-05-10T17:53:00.184Z,100549.53
2023-05-10T17:56:02.799Z,100560.78
2023-05-10T18:15:01.455Z,100578.03
2023-05-10T18:17:00.899Z,100589.97
2023-05-10T18:18:59.560Z,100590.38
2023-05-10T18:21:01.910Z,100586.50
2023-05-10T18:23:01.766Z,100584.84
2023-05-10T18:24:57.593Z,100587.09
2023-05-10T18:26:55.944Z,100589.22
2023-05-10T18:28:51.979Z,100590.84
2023-05-10T18:30:49.739Z,100595.22
2023-05-10T18:32:45.378Z,100593.75
2023-05-10T18:34:40.673Z,100596.59
2023-05-10T18:36:36.594Z,100596.16
2023-05-10T18:38:41.016Z,100603.31
2023-05-10T18:40:37.104Z,100604.41
2023-05-10T18:42:32.742Z,100603.81
2023-05-10T18:44:31.554Z,100608.88
2023-05-10T18:46:32.396Z,100609.25
2023-05-10T18:48:30.616Z,100613.31
2023-05-10T18:50:28.991Z,100618.69
2023-05-10T18:52:30.207Z,100616.72
2023-05-10T18:54:25.727Z,100618.06
2023-05-10T18:56:25.235Z,100620.75
2023-05-10T18:58:34.174Z,100626.94
2023-05-10T19:00:32.727Z,100626.28
2023-05-10T19:02:30.792Z,100634.50
2023-05-10T19:04:26.593Z,100633.47
2023-05-10T19:06:21.897Z,100632.22
2023-05-10T19:08:18.257Z,100635.91
2023-05-10T19:10:17.135Z,100636.94
2023-05-10T19:12:18.746Z,100636.75
2023-05-10T19:17:59.974Z,100640.19
2023-05-10T19:20:05.836Z,100643.44
2023-05-10T19:23:09.276Z,100644.50
2023-05-10T19:25:45.882Z,100646.09
2023-05-10T19:28:00.045Z,100651.59
2023-05-10T19:30:34.724Z,100650.38
2023-05-10T19:32:45.866Z,100648.50
2023-05-10T19:35:13.924Z,100647.47
2023-05-10T19:37:52.716Z,100653.28
2023-05-10T19:39:58.896Z,100653.28
2023-05-10T19:42:14.583Z,100657.16
2023-05-10T19:50:20.921Z,100657.94
2023-05-10T19:52:30.984Z,100664.19
2023-05-10T19:57:16.242Z,100671.22
2023-05-10T19:59:16.353Z,100668.19
2023-05-10T20:01:13.530Z,100670.47
2023-05-10T20:03:10.974Z,100672.72
2023-05-10T20:05:18.320Z,100668.03
2023-05-10T20:07:18.557Z,100677.75
2023-05-10T20:09:31.712Z,100682.50
2023-05-10T20:11:56.280Z,100684.19
2023-05-10T20:14:47.299Z,100684.44
2023-05-10T20:17:17.698Z,100677.88
2023-05-10T20:19:47.135Z,100681.81
2023-05-10T20:33:38.469Z,100691.75
2023-05-10T20:44:46.203Z,100689.97
2023-05-10T20:51:35.274Z,100700.75
2023-05-10T20:54:20.329Z,100700.16
2023-05-10T20:56:39.371Z,100703.25
2023-05-10T20:58:58.351Z,100701.41
2023-05-10T21:01:40.974Z,100697.91
2023-05-10T21:03:55.672Z,100705.06
2023-05-10T21:06:27.328Z,100707.97
2023-05-10T21:08:54.508Z,100705.66
2023-05-10T21:16:20.918Z,100709.41
2023-05-10T21:26:14.100Z,100706.53
2023-05-10T21:29:12.778Z,100705.06
2023-05-10T21:32:00.782Z,100718.25
2023-05-10T21:38:06.394Z,100714.13
2023-05-10T21:41:05.365Z,100711.44
2023-05-10T21:54:32.541Z,100717.81
2023-05-10T22:01:09.015Z,100719.22
2023-05-10T22:11:03.891Z,100729.28
2023-05-10T22:14:00.707Z,100728.03
2023-05-10T22:17:09.901Z,100730.50
2023-05-10T22:27:00.421Z,100730.16
2023-05-10T22:30:00.500Z,100731.34
2023-05-10T22:32:27.113Z,100730.72
2023-05-10T22:35:09.094Z,100728.25
2023-05-10T22:37:33.423Z,100730.91
2023-05-10T22:40:18.892Z,100731.31
2023-05-10T22:42:55.262Z,100735.22
2023-05-10T22:51:18.267Z,100734.56
2023-05-10T22:54:06.414Z,100737.00
2023-05-10T22:55:54.451Z,100731.44
2023-05-10T22:57:57.493Z,100730.81
2023-05-10T23:00:50.610Z,100732.81
2023-05-10T23:03:01.134Z,100731.19
2023-05-10T23:05:18.914Z,100731.19
2023-05-10T23:07:19.061Z,100735.69
2023-05-10T23:09:23.520Z,100738.75
2023-05-10T23:11:29.084Z,100738.31
2023-05-10T23:13:33.080Z,100732.34
2023-05-10T23:15:34.778Z,100741.56
2023-05-10T23:17:30.517Z,100737.03
2023-05-10T23:19:26.668Z,100733.94
2023-05-10T23:21:22.747Z,100732.03
2023-05-10T23:23:23.091Z,100732.63
2023-05-10T23:25:19.095Z,100730.16
2023-05-10T23:27:23.444Z,100733.03
2023-05-10T23:29:32.983Z,100732.75
2023-05-10T23:31:46.063Z,100735.00
2023-05-10T23:33:41.382Z,100736.03
2023-05-10T23:35:37.268Z,100737.66
2023-05-10T23:37:33.041Z,100738.47
2023-05-10T23:39:33.072Z,100735.63
2023-05-10T23:41:33.938Z,100738.47
2023-05-10T23:43:34.192Z,100733.91
2023-05-10T23:45:31.898Z,100734.69
2023-05-10T23:47:32.466Z,100737.09
2023-05-10T23:49:33.934Z,100734.75
2023-05-10T23:51:37.495Z,100738.19
2023-05-10T23:56:47.416Z,100735.91
2023-05-10T23:58:44.405Z,100728.47
